Grand Junction, CO

8:19 PM MDT on May 25, 2015 (GMT -0600)
Tumbleweed Alpaca Ranch, Fruitvale CO | | Change Station
CLOSE
Current Station
Personal Weather Station
Location: Grand Junction, CO
Elevation: 4724 ft
Nearby Weather Stations

Elev 4724 ft 39.10 °N, 108.51 °W | Updated 81 days ago

Partly Cloudy
Partly Cloudy
57 °F
Feels Like 57 °F
N
4
Wind Variable Wind from East
Gusts mph

Today
High -- | Low -- °F
--% Chance of Precip.
Yesterday
High -- | Low -- °F
Precip. -- in
5:53 AM 8:28 PM
First Quarter, 53% visible
Pressure 29.83 in
Visibility 10.0 miles
Clouds Few 7000 ft
Dew Point 44 °F
Humidity 60%
Rainfall in
Snow Depth Not available.
UV 0 out of 12
Pollen 7.00 out of 12
Air Quality Not available.
Flu Activity Sporadic
METAR KGJT 260153Z 32006KT 10SM FEW070 17/03 A2995 RMK AO2 LTG DSNT N SLP101 T01720033

More Conditions Fewer Conditions

Pressure 29.83 in
Visibility 10.0 miles
Clouds Few 7000 ft
Dew Point 44 °F
Humidity 60%
Rainfall in
Snow Depth Not available.
UV 0 out of 12
Pollen 7.00 out of 12
Air Quality Not available.
Flu Activity Sporadic
METAR KGJT 260153Z 32006KT 10SM FEW070 17/03 A2995 RMK AO2 LTG DSNT N SLP101 T01720033

More Conditions Fewer Conditions

10-Day Weather Forecast

Almanac

Astronomy

May. 25, 2015 Rise Set
Actual Time
Civil Twilight
Nautical Twilight
Astronomical Twilight
Moon
Length of Visible Light
Length of Day
Tomorrow will be .
, % of the Moon is Illuminated

Today's Extremes

State Highs State Lows

Community

WunderPhotos

Upload Photos

1,824,237 photos uploaded!

WunderBlogs® & News

Nearby

Air Quality

  Air Quality AQ Index Pollutant
Not available.

Snow Depth

Station Depth Elevation

Earthquake Activity

City Distance Mag. Time & Date
Minimum magnitude displayed is 2.5.

Coastal Water Temperatures

Place Temperature

Stations

Nearby Weather Stations

Station Location Temp. Windchill Dew Point Humidity Wind Precip. Elev Updated Type